CheckWX is a tool to help pilots better visualize weather data.  It is not intended as a substitute for an official pre-flight weather briefing.

18:35:19 UTC

KEVV METAR
Evansville Regional Airport
Evansville, Indiana, USA
Current

41 mins ago

KEVV 161754Z 00000KT 10SM CLR 11/M01 A3011 RMK AO2 SLP197 T01061006 10106 20006 58009 $
Observed
Feb-16 @ 17:54 UTC
Visibility
10 SM
Flight Rules
VFR
Cloud Levels
  • Clear skies
Temperature
11°C / 52°F
Dewpoint
-1°C / 30°F
Humidity
44%
Altimeter
30.11" Hg
Pressure
1019.62 hPa
Previous

2 hours ago

KEVV 161654Z 00000KT 10SM FEW065 09/M01 A3013 RMK AO2 SLP205 T00891011
Observed
Feb-16 @ 16:54 UTC
Visibility
10 SM
Flight Rules
VFR
Cloud Levels
  • Few at 6,500' AGL
Temperature
C / 48°F
Dewpoint
-1°C / 30°F
Humidity
50%
Altimeter
30.13" Hg
Pressure
1020.32 hPa
Previous

3 hours ago

KEVV 161554Z 02005KT 10SM BKN060 07/M02 A3013 RMK AO2 SLP205 T00721017
Observed
Feb-16 @ 15:54 UTC
Wind
  • 020° at 5 KTS
Visibility
10 SM
Flight Rules
VFR
Cloud Levels
  • Broken at 6,000' AGL
Temperature
C / 45°F
Dewpoint
-2°C / 28°F
Humidity
53%
Altimeter
30.13" Hg
Pressure
1020.32 hPa